Time;durP1;ratioP1;P1;durP2;ratioP2;P2;SDS_P1;SDS_P2;PMS_P1;PMS_P2;Temp;Humidity;BMP_temperature;BMP_pressure;BME280_temperature;BME280_humidity;BME280_pressure;Samples;Min_cycle;Max_cycle;Signal;HPM_P1;HPM_P2
2022/07/02 00:00:54;;;;;;;0.82;0.30;;;13.50;99.90;;;;;;6306662;22;20034;-84
2022/07/02 00:03:53;;;;;;;0.88;0.30;;;13.50;99.90;;;;;;6279606;22;20023;-87
2022/07/02 00:06:20;;;;;;;1.00;0.40;;;13.40;99.90;;;;;;6281413;22;20380;-85
2022/07/02 00:08:46;;;;;;;0.65;0.30;;;13.40;99.90;;;;;;6308192;22;20019;-84
2022/07/02 00:11:16;;;;;;;1.15;0.50;;;13.30;99.90;;;;;;6281156;22;20011;-87
2022/07/02 00:13:43;;;;;;;0.40;0.40;;;13.30;99.90;;;;;;6308216;22;20019;-85
2022/07/02 00:16:12;;;;;;;0.47;0.40;;;13.30;99.90;;;;;;6308381;22;20042;-85
2022/07/02 00:18:38;;;;;;;0.52;0.30;;;13.20;99.90;;;;;;6280695;22;20015;-86
2022/07/02 00:21:04;;;;;;;0.57;0.40;;;13.10;99.90;;;;;;6308509;22;20018;-85
2022/07/02 00:23:30;;;;;;;1.58;0.47;;;13.10;99.90;;;;;;6308380;22;20007;-85
2022/07/02 00:26:09;;;;;;;0.68;0.40;;;13.00;99.90;;;;;;6308062;22;20084;-85
2022/07/02 00:28:40;;;;;;;1.10;0.40;;;13.00;99.90;;;;;;6308004;22;20015;-86
2022/07/02 00:31:06;;;;;;;2.15;0.55;;;13.00;99.90;;;;;;6307857;22;20027;-85
2022/07/02 00:33:37;;;;;;;2.35;0.50;;;13.00;99.90;;;;;;6280560;22;20155;-85
2022/07/02 00:36:04;;;;;;;0.45;0.32;;;12.90;99.90;;;;;;6308141;22;20011;-85
2022/07/02 00:38:32;;;;;;;0.82;0.40;;;12.90;99.90;;;;;;6280110;22;20026;-85
2022/07/02 00:41:00;;;;;;;1.75;0.60;;;13.40;99.90;;;;;;6308333;22;20449;-86
2022/07/02 00:43:26;;;;;;;0.82;0.50;;;12.90;99.90;;;;;;6307437;22;20465;-85
2022/07/02 00:45:54;;;;;;;1.75;0.40;;;12.90;99.90;;;;;;6308077;22;20021;-84
2022/07/02 00:48:20;;;;;;;0.90;0.50;;;12.80;99.90;;;;;;6308121;22;20350;-85
2022/07/02 00:50:46;;;;;;;1.45;0.35;;;12.90;99.90;;;;;;6308146;22;20026;-85
2022/07/02 00:53:12;;;;;;;0.95;0.30;;;12.90;99.90;;;;;;6280475;22;20021;-85
2022/07/02 00:55:37;;;;;;;1.10;0.40;;;12.90;99.90;;;;;;6280225;22;20098;-85
2022/07/02 00:58:04;;;;;;;2.90;0.55;;;12.90;99.90;;;;;;6308225;22;20076;-86
2022/07/02 01:00:29;;;;;;;1.48;0.40;;;12.90;99.90;;;;;;6280269;22;20090;-85
2022/07/02 01:02:56;;;;;;;1.65;0.30;;;13.00;99.90;;;;;;6307891;22;20053;-84
2022/07/02 01:05:22;;;;;;;1.40;0.50;;;12.90;99.90;;;;;;6308350;22;20011;-85
2022/07/02 01:10:16;;;;;;;0.65;0.57;;;13.00;99.90;;;;;;6254846;22;20058;-85
2022/07/02 01:10:48;;;;;;;0.70;0.45;;;12.50;99.90;;;;;;6280243;22;20418;-85
2022/07/02 01:13:17;;;;;;;0.90;0.52;;;13.00;99.90;;;;;;6280257;22;20022;-85
2022/07/02 01:15:43;;;;;;;1.73;0.50;;;13.10;99.90;;;;;;6307901;22;20055;-84
2022/07/02 01:18:10;;;;;;;3.45;0.60;;;13.10;99.90;;;;;;6279998;22;20027;-86
2022/07/02 01:20:36;;;;;;;1.20;0.60;;;13.20;99.90;;;;;;6280585;22;20055;-83
2022/07/02 01:23:03;;;;;;;0.68;0.40;;;13.20;99.90;;;;;;6307701;22;20026;-85
2022/07/02 01:25:29;;;;;;;1.20;0.50;;;13.30;99.90;;;;;;6307787;22;20057;-85
2022/07/02 01:27:55;;;;;;;1.85;0.50;;;13.20;99.90;;;;;;6280398;22;20445;-85
2022/07/02 01:30:20;;;;;;;1.13;0.60;;;13.30;99.90;;;;;;6254904;22;20129;-85
2022/07/02 01:32:46;;;;;;;2.08;0.55;;;13.30;99.90;;;;;;6254696;22;20023;-85
2022/07/02 01:35:12;;;;;;;1.30;0.47;;;13.40;99.90;;;;;;6279927;22;20015;-86
2022/07/02 01:37:39;;;;;;;1.83;0.60;;;13.40;99.90;;;;;;6307598;22;20019;-85
2022/07/02 01:40:06;;;;;;;0.52;0.47;;;13.40;99.90;;;;;;6279991;22;20439;-85
2022/07/02 01:42:32;;;;;;;2.65;0.82;;;13.40;99.90;;;;;;6307201;22;20030;-85
2022/07/02 01:44:58;;;;;;;6.03;1.33;;;13.70;99.90;;;;;;6279986;22;20103;-85
2022/07/02 01:47:23;;;;;;;2.70;0.80;;;13.50;99.90;;;;;;6307531;22;20401;-85
2022/07/02 01:49:49;;;;;;;1.33;0.57;;;13.50;99.90;;;;;;6280408;22;20015;-85
2022/07/02 01:52:15;;;;;;;2.17;0.60;;;13.50;99.90;;;;;;6307363;22;20030;-85
2022/07/02 01:54:42;;;;;;;2.80;0.60;;;13.50;99.90;;;;;;6280241;22;20022;-86
2022/07/02 01:57:08;;;;;;;1.58;0.60;;;13.50;99.90;;;;;;6280031;22;20073;-85
2022/07/02 01:59:34;;;;;;;1.95;0.60;;;13.60;99.90;;;;;;6306841;22;20019;-85
2022/07/02 02:02:02;;;;;;;5.13;0.90;;;13.50;99.90;;;;;;6307623;22;20025;-85
2022/07/02 02:04:27;;;;;;;2.22;0.60;;;13.60;99.90;;;;;;6306951;22;20022;-86
2022/07/02 02:06:53;;;;;;;0.68;0.50;;;13.50;99.90;;;;;;6307360;22;20015;-85
2022/07/02 02:09:19;;;;;;;1.75;0.60;;;13.50;99.90;;;;;;6279845;22;20377;-85
2022/07/02 02:11:46;;;;;;;1.70;0.65;;;14.10;99.90;;;;;;6279194;22;20025;-85
2022/07/02 02:17:55;;;;;;;2.15;0.80;;;13.50;99.90;;;;;;6307374;22;20034;-85
2022/07/02 02:20:21;;;;;;;1.73;0.70;;;13.50;99.90;;;;;;6279908;22;20090;-85
2022/07/02 02:22:49;;;;;;;1.20;0.40;;;13.50;99.90;;;;;;6280039;22;20042;-85
2022/07/02 02:25:14;;;;;;;1.05;0.60;;;13.70;99.90;;;;;;6307283;22;20442;-86
2022/07/02 02:27:40;;;;;;;1.02;0.73;;;13.50;99.90;;;;;;6306301;22;20016;-85
2022/07/02 02:30:06;;;;;;;4.20;0.88;;;14.20;99.90;;;;;;6306870;22;20026;-86
2022/07/02 02:32:32;;;;;;;1.95;1.08;;;13.50;99.90;;;;;;6307245;22;20023;-85
2022/07/02 02:34:58;;;;;;;4.40;0.90;;;13.60;99.90;;;;;;6279025;22;20026;-85
2022/07/02 02:37:23;;;;;;;1.17;0.70;;;13.60;99.90;;;;;;6279743;22;20346;-86
2022/07/02 02:39:49;;;;;;;2.50;0.80;;;13.60;99.90;;;;;;6279260;22;20015;-86
2022/07/02 02:42:15;;;;;;;3.72;0.80;;;13.60;99.90;;;;;;6279051;22;20098;-86
2022/07/02 02:44:41;;;;;;;3.50;0.80;;;13.60;99.90;;;;;;6279439;22;20015;-86
2022/07/02 02:47:06;;;;;;;3.80;1.27;;;13.60;99.90;;;;;;6307274;22;20390;-85
2022/07/02 02:49:32;;;;;;;2.03;0.60;;;13.60;99.90;;;;;;6279455;22;20030;-86
2022/07/02 02:51:58;;;;;;;1.88;0.50;;;13.50;99.90;;;;;;6306823;22;20019;-86
2022/07/02 02:54:23;;;;;;;1.83;0.70;;;13.50;99.90;;;;;;6307564;22;20072;-86
2022/07/02 02:56:49;;;;;;;2.20;0.75;;;13.50;99.90;;;;;;6306187;22;20050;-86
2022/07/02 02:59:15;;;;;;;1.02;0.50;;;13.50;99.90;;;;;;6306861;22;20011;-86
2022/07/02 03:01:41;;;;;;;1.63;0.60;;;13.60;99.90;;;;;;6279124;22;20389;-85
2022/07/02 03:04:06;;;;;;;2.03;0.60;;;13.50;99.90;;;;;;6306141;22;20011;-86
2022/07/02 03:06:32;;;;;;;1.27;0.60;;;13.50;99.90;;;;;;6279749;22;20026;-86
2022/07/02 03:08:58;;;;;;;3.28;0.52;;;13.50;99.90;;;;;;6306804;22;20019;-86
2022/07/02 03:11:23;;;;;;;2.58;0.63;;;13.40;99.90;;;;;;6279561;22;20007;-86
2022/07/02 03:13:49;;;;;;;1.80;0.90;;;13.50;99.90;;;;;;6279088;22;20055;-87
2022/07/02 03:16:15;;;;;;;1.10;0.65;;;13.50;99.90;;;;;;6279052;22;20016;-87
2022/07/02 03:18:40;;;;;;;1.30;0.57;;;13.50;99.90;;;;;;6254011;22;20016;-87
2022/07/02 03:21:06;;;;;;;1.50;0.60;;;13.40;99.90;;;;;;6307126;22;20093;-88
2022/07/02 03:23:32;;;;;;;3.20;0.60;;;13.70;99.90;;;;;;6308864;22;20457;-87
2022/07/02 03:25:57;;;;;;;3.85;0.65;;;13.40;99.90;;;;;;6279324;22;20026;-88
2022/07/02 03:28:23;;;;;;;0.90;0.52;;;13.50;99.90;;;;;;6306389;22;20405;-85
2022/07/02 03:30:49;;;;;;;0.80;0.40;;;13.50;99.90;;;;;;6306916;22;20015;-87
2022/07/02 03:33:15;;;;;;;0.98;0.40;;;13.50;99.90;;;;;;6307045;22;20122;-86
2022/07/02 03:35:41;;;;;;;1.13;0.50;;;13.40;99.90;;;;;;6279908;22;20051;-86
2022/07/02 03:38:07;;;;;;;0.88;0.50;;;13.40;99.90;;;;;;6280347;22;20088;-87
2022/07/02 03:40:33;;;;;;;1.52;0.55;;;13.40;99.90;;;;;;6257159;22;20098;-86
2022/07/02 03:42:58;;;;;;;1.20;0.70;;;13.90;99.90;;;;;;6281871;22;20096;-86
2022/07/02 03:45:24;;;;;;;1.73;0.60;;;13.80;99.90;;;;;;6309322;22;20423;-87
2022/07/02 03:47:50;;;;;;;1.58;0.55;;;13.60;99.90;;;;;;6281539;22;20020;-87
2022/07/02 03:50:15;;;;;;;0.85;0.50;;;13.20;99.90;;;;;;6281497;22;20102;-87
2022/07/02 03:52:41;;;;;;;1.52;0.40;;;13.50;99.90;;;;;;6256413;22;20081;-86
2022/07/02 03:55:08;;;;;;;3.67;0.47;;;13.20;99.90;;;;;;6281542;22;20480;-87
2022/07/02 03:57:34;;;;;;;1.75;0.40;;;13.10;99.90;;;;;;6281939;22;20057;-86
2022/07/02 04:00:00;;;;;;;0.85;0.45;;;13.10;99.90;;;;;;6281843;22;20027;-86
2022/07/02 04:02:26;;;;;;;1.35;0.50;;;13.20;99.90;;;;;;6309755;22;20345;-86
2022/07/02 04:04:53;;;;;;;1.70;0.65;;;13.10;99.90;;;;;;6310174;22;20417;-87
2022/07/02 04:07:18;;;;;;;0.70;0.50;;;13.10;99.90;;;;;;6281624;22;20016;-86
2022/07/02 04:09:45;;;;;;;3.92;0.50;;;13.10;99.90;;;;;;6257175;22;20019;-85
2022/07/02 04:12:10;;;;;;;2.03;0.50;;;13.40;99.90;;;;;;6330739;22;20023;-86
2022/07/02 04:14:36;;;;;;;1.20;0.45;;;13.10;99.90;;;;;;6303754;22;20011;-86
2022/07/02 04:17:02;;;;;;;0.85;0.40;;;13.10;99.90;;;;;;6315174;22;20467;-86
2022/07/02 04:19:28;;;;;;;1.30;0.55;;;13.20;99.90;;;;;;6284393;22;20038;-86
2022/07/02 04:21:54;;;;;;;3.97;0.50;;;13.20;99.90;;;;;;6311898;22;20069;-86
2022/07/02 04:24:20;;;;;;;2.80;0.70;;;13.60;99.90;;;;;;6312052;22;20019;-87
2022/07/02 04:26:46;;;;;;;1.73;0.40;;;13.30;99.90;;;;;;6310891;22;20023;-87
2022/07/02 04:29:12;;;;;;;2.55;0.50;;;13.30;99.90;;;;;;6281724;22;20023;-86
2022/07/02 04:31:37;;;;;;;1.10;0.47;;;13.50;99.90;;;;;;6286982;22;20019;-85
2022/07/02 04:34:03;;;;;;;2.55;0.70;;;13.80;99.90;;;;;;6280977;22;20023;-86
2022/07/02 04:36:29;;;;;;;1.88;0.60;;;13.60;99.90;;;;;;6281237;22;20366;-86
2022/07/02 04:38:54;;;;;;;0.95;0.50;;;13.70;99.90;;;;;;6280545;22;20442;-86
2022/07/02 04:41:20;;;;;;;3.90;0.88;;;13.70;99.90;;;;;;6308998;22;20011;-85
2022/07/02 04:43:46;;;;;;;2.40;0.50;;;13.80;99.90;;;;;;6308435;22;20015;-85
2022/07/02 04:46:12;;;;;;;2.50;0.70;;;13.80;99.90;;;;;;6308444;22;20012;-86
2022/07/02 04:48:37;;;;;;;0.88;0.50;;;14.00;99.90;;;;;;6281083;22;20046;-85
2022/07/02 04:51:03;;;;;;;3.78;1.23;;;14.00;99.90;;;;;;6308721;22;20011;-86
2022/07/02 04:53:29;;;;;;;1.63;0.80;;;14.20;99.90;;;;;;6308459;22;20019;-85
2022/07/02 04:55:55;;;;;;;2.30;0.60;;;14.30;99.90;;;;;;6280605;22;20077;-85
2022/07/02 04:58:20;;;;;;;1.27;0.70;;;14.40;99.90;;;;;;6280590;22;20392;-85
2022/07/02 05:00:46;;;;;;;2.88;1.08;;;14.50;99.90;;;;;;6280243;22;20026;-85
2022/07/02 05:03:12;;;;;;;2.00;0.70;;;14.70;99.90;;;;;;6308191;22;20488;-85
2022/07/02 05:05:37;;;;;;;4.32;1.00;;;14.80;99.90;;;;;;6308409;22;20430;-87
2022/07/02 05:08:10;;;;;;;5.38;1.45;;;14.90;99.90;;;;;;6280284;22;20027;-91
2022/07/02 05:10:38;;;;;;;1.98;0.90;;;15.00;99.90;;;;;;6308152;22;20027;-88
2022/07/02 05:13:06;;;;;;;6.50;1.45;;;15.00;99.90;;;;;;6308215;22;20049;-87
2022/07/02 05:15:35;;;;;;;4.55;1.23;;;15.20;99.90;;;;;;6281251;22;20019;-87
2022/07/02 05:18:17;;;;;;;;;;;;;;;;;;;;;
2022/07/02 05:20:48;;;;;;;3.50;1.50;;;15.40;99.90;;;;;;6204097;22;20105;-88
2022/07/02 05:23:16;;;;;;;1.23;0.90;;;15.50;99.90;;;;;;6280407;22;20084;-87
2022/07/02 05:25:45;;;;;;;3.42;1.08;;;15.50;99.90;;;;;;6280571;22;20073;-87
2022/07/02 05:28:11;;;;;;;2.88;0.85;;;15.70;99.90;;;;;;6279895;22;20015;-86
2022/07/02 05:30:36;;;;;;;2.70;1.25;;;15.80;99.90;;;;;;6280253;22;20023;-86
2022/07/02 05:33:05;;;;;;;2.75;0.90;;;15.80;99.90;;;;;;6280523;22;20030;-88
2022/07/02 05:35:31;;;;;;;3.60;1.25;;;15.90;99.90;;;;;;6280059;22;20023;-85
2022/07/02 05:37:57;;;;;;;3.75;1.30;;;16.10;99.90;;;;;;6279675;22;20025;-86
2022/07/02 05:40:26;;;;;;;3.03;1.55;;;16.20;99.90;;;;;;6308180;22;20442;-86
2022/07/02 05:42:51;;;;;;;3.53;1.80;;;16.20;99.90;;;;;;6280293;22;20015;-86
2022/07/02 05:49:00;;;;;;;2.85;1.15;;;16.40;99.90;;;;;;6307265;22;20106;-86
2022/07/02 05:51:26;;;;;;;2.35;1.30;;;16.50;99.90;;;;;;6280842;22;20019;-86
2022/07/02 05:53:54;;;;;;;1.38;1.00;;;16.70;99.90;;;;;;6280331;22;20510;-86
2022/07/02 05:56:20;;;;;;;3.30;1.00;;;16.60;99.90;;;;;;6254239;22;20025;-86
2022/07/02 05:58:46;;;;;;;2.85;1.10;;;16.70;99.90;;;;;;6279777;22;20054;-86
2022/07/02 06:01:17;;;;;;;2.65;0.75;;;16.80;99.90;;;;;;6279762;22;20023;-86
2022/07/02 06:03:43;;;;;;;2.97;1.25;;;16.90;99.90;;;;;;6278218;22;20034;-85
2022/07/02 06:08:53;;;;;;;1.83;0.93;;;17.00;99.90;;;;;;6279829;22;20105;-86
2022/07/02 06:11:18;;;;;;;2.28;1.00;;;17.10;99.90;;;;;;6279581;22;20115;-87
2022/07/02 06:13:44;;;;;;;2.70;1.23;;;17.20;99.90;;;;;;6307553;22;20015;-86
2022/07/02 06:16:10;;;;;;;2.95;1.17;;;17.30;99.90;;;;;;6307544;22;20051;-87
2022/07/02 06:18:36;;;;;;;2.15;1.20;;;17.30;99.90;;;;;;6280108;22;20027;-86
2022/07/02 06:21:02;;;;;;;2.65;1.20;;;17.40;99.90;;;;;;6280469;22;20019;-86
2022/07/02 06:23:27;;;;;;;6.35;1.30;;;17.50;99.90;;;;;;6279663;22;20020;-86
2022/07/02 06:25:56;;;;;;;2.92;1.27;;;17.50;99.90;;;;;;6280099;22;20466;-86
2022/07/02 06:28:24;;;;;;;2.45;0.70;;;17.50;99.90;;;;;;6306967;22;20015;-88
2022/07/02 06:30:56;;;;;;;1.52;0.98;;;17.80;99.90;;;;;;6253834;22;20030;-86
2022/07/02 06:33:35;;;;;;;1.48;1.08;;;17.90;99.90;;;;;;6279408;22;20073;-87
2022/07/02 06:36:03;;;;;;;4.20;1.08;;;18.00;99.90;;;;;;6254491;22;20085;-86
2022/07/02 06:38:36;;;;;;;2.90;1.20;;;18.10;99.90;;;;;;6253949;22;20023;-86
2022/07/02 06:42:18;;;;;;;2.00;1.00;;;18.20;99.90;;;;;;6280082;22;20400;-86
2022/07/02 06:43:48;;;;;;;3.53;0.90;;;18.40;99.90;;;;;;6279542;22;20107;-87
2022/07/02 06:46:18;;;;;;;1.98;0.93;;;18.50;99.90;;;;;;6306976;22;20436;-87
2022/07/02 06:48:54;;;;;;;2.33;0.70;;;18.60;99.90;;;;;;6279605;22;20016;-87
2022/07/02 06:51:20;;;;;;;1.83;0.90;;;18.70;99.90;;;;;;6279931;22;20015;-86
2022/07/02 06:53:46;;;;;;;3.63;0.90;;;18.70;99.90;;;;;;6307268;22;20446;-87
2022/07/02 06:56:12;;;;;;;2.13;0.80;;;19.00;99.90;;;;;;6253688;22;20055;-86
2022/07/02 06:58:40;;;;;;;4.82;0.80;;;19.00;99.90;;;;;;6279153;22;20438;-87
2022/07/02 07:01:06;;;;;;;3.25;0.90;;;19.10;99.90;;;;;;6307103;22;20012;-86
2022/07/02 07:03:32;;;;;;;1.83;0.63;;;19.20;99.90;;;;;;6279097;22;20365;-86
2022/07/02 07:05:58;;;;;;;2.42;0.82;;;19.20;99.90;;;;;;6279860;22;20068;-86
2022/07/02 07:08:23;;;;;;;4.25;0.82;;;19.60;99.90;;;;;;6240570;22;20028;-85
2022/07/02 07:13:30;;;;;;;3.60;0.60;;;19.60;99.90;;;;;;6214061;22;20024;-84
2022/07/02 07:15:56;;;;;;;3.72;0.60;;;19.70;99.90;;;;;;6214868;23;20016;-86
2022/07/02 07:18:21;;;;;;;2.70;0.80;;;19.70;99.90;;;;;;6213103;23;20028;-85
2022/07/02 07:20:49;;;;;;;3.53;0.85;;;19.90;99.90;;;;;;6213504;23;20013;-84
2022/07/02 07:23:15;;;;;;;0.82;0.60;;;19.90;99.90;;;;;;6215164;23;20013;-85
2022/07/02 07:25:41;;;;;;;2.58;0.70;;;20.10;99.90;;;;;;6212819;23;20027;-85
2022/07/02 07:28:07;;;;;;;4.82;0.60;;;20.20;99.90;;;;;;6213494;23;20017;-82
2022/07/02 07:30:32;;;;;;;1.15;0.40;;;20.20;99.90;;;;;;6214706;23;20017;-84
2022/07/02 07:32:58;;;;;;;4.95;0.63;;;20.20;99.90;;;;;;6212662;23;20027;-83
2022/07/02 07:35:24;;;;;;;2.00;0.50;;;20.30;99.90;;;;;;6214868;23;20028;-84
2022/07/02 07:37:57;;;;;;;2.15;0.50;;;20.40;99.90;;;;;;6212538;23;20481;-82
2022/07/02 07:40:24;;;;;;;1.60;0.40;;;20.50;99.90;;;;;;6215053;23;20316;-83
2022/07/02 07:42:49;;;;;;;0.85;0.30;;;20.70;99.90;;;;;;6214621;23;20017;-85
2022/07/02 07:45:15;;;;;;;2.63;0.50;;;20.80;99.90;;;;;;6214785;23;20071;-83
2022/07/02 07:47:41;;;;;;;0.65;0.50;;;20.70;99.90;;;;;;6214633;23;20009;-85
2022/07/02 07:50:07;;;;;;;1.05;0.47;;;20.80;99.90;;;;;;6213736;23;20021;-83
2022/07/02 07:52:32;;;;;;;2.17;0.40;;;20.70;99.90;;;;;;6214439;23;20009;-84
2022/07/02 07:54:58;;;;;;;0.95;0.40;;;20.90;99.90;;;;;;6214653;23;20321;-84
2022/07/02 07:57:24;;;;;;;2.55;0.43;;;20.90;99.90;;;;;;6213034;23;20028;-85
2022/07/02 07:59:50;;;;;;;1.88;0.45;;;20.80;99.90;;;;;;6212535;23;20070;-84
2022/07/02 08:02:16;;;;;;;3.55;0.50;;;20.90;99.90;;;;;;6214789;23;20025;-86
2022/07/02 08:04:42;;;;;;;3.00;0.50;;;21.10;99.90;;;;;;6212994;23;20087;-84
2022/07/02 08:07:08;;;;;;;1.98;0.40;;;21.20;99.90;;;;;;6213027;23;20052;-85
2022/07/02 08:09:34;;;;;;;1.20;0.30;;;21.20;99.90;;;;;;6214505;23;20024;-84
2022/07/02 08:12:02;;;;;;;1.63;0.30;;;21.30;99.90;;;;;;6212714;23;20027;-86
2022/07/02 08:14:28;;;;;;;2.22;0.40;;;21.30;99.90;;;;;;6213094;23;20070;-85
2022/07/02 08:16:53;;;;;;;1.55;0.43;;;21.30;99.90;;;;;;6213079;23;20028;-85
2022/07/02 08:19:29;;;;;;;2.25;0.50;;;21.50;99.90;;;;;;6213101;23;20027;-90
2022/07/02 08:21:55;;;;;;;1.45;0.52;;;21.80;99.90;;;;;;6214490;23;20028;-84
2022/07/02 08:24:20;;;;;;;0.57;0.30;;;21.80;99.90;;;;;;6213530;23;20052;-84
2022/07/02 08:26:46;;;;;;;1.67;0.50;;;21.90;99.90;;;;;;6214347;23;20061;-87
2022/07/02 08:29:12;;;;;;;0.68;0.30;;;22.00;99.90;;;;;;6216470;23;20020;-83
2022/07/02 08:31:37;;;;;;;3.80;0.25;;;22.00;99.90;;;;;;6214027;23;20021;-83
2022/07/02 08:34:04;;;;;;;1.00;0.20;;;22.10;99.90;;;;;;6216654;23;20066;-87
2022/07/02 08:36:31;;;;;;;1.77;0.30;;;22.10;99.90;;;;;;6214771;23;20055;-84
2022/07/02 08:39:27;;;;;;;3.08;0.30;;;22.30;99.90;;;;;;6216969;23;20059;-88
2022/07/02 08:42:26;;;;;;;1.80;0.40;;;22.40;99.90;;;;;;6211280;22;20132;-88
2022/07/02 08:48:48;;;;;;;1.88;0.20;;;22.80;99.90;;;;;;6186275;23;20348;-84
2022/07/02 08:51:14;;;;;;;2.70;0.40;;;22.60;99.90;;;;;;6186633;23;20017;-85
2022/07/02 08:53:42;;;;;;;1.95;0.40;;;22.60;99.40;;;;;;6186513;23;20048;-85
2022/07/02 08:56:09;;;;;;;0.80;0.30;;;22.60;98.00;;;;;;6185626;23;20135;-84
2022/07/02 08:58:36;;;;;;;1.40;0.20;;;22.70;98.80;;;;;;6185835;23;20182;-84
2022/07/02 09:01:03;;;;;;;1.50;0.25;;;22.80;99.60;;;;;;6186015;23;20013;-85
2022/07/02 09:03:29;;;;;;;2.25;0.20;;;22.70;98.60;;;;;;6184686;23;20071;-84
2022/07/02 09:05:58;;;;;;;1.30;0.50;;;22.90;98.00;;;;;;6184848;23;20443;-84
2022/07/02 09:08:34;;;;;;;1.58;0.40;;;23.00;98.60;;;;;;6184378;23;20095;-91
2022/07/02 09:11:00;;;;;;;1.92;0.40;;;23.10;98.90;;;;;;6193085;22;20444;-84
2022/07/02 09:13:27;;;;;;;1.40;0.10;;;23.20;97.20;;;;;;6217056;23;20400;-84
2022/07/02 09:15:54;;;;;;;0.60;0.20;;;23.20;97.10;;;;;;6216489;23;20347;-81
2022/07/02 09:18:20;;;;;;;0.95;0.20;;;23.10;96.40;;;;;;6216086;23;20178;-82
2022/07/02 09:20:46;;;;;;;1.17;0.30;;;23.20;96.10;;;;;;6214455;23;20020;-83
2022/07/02 09:23:20;;;;;;;1.42;0.20;;;23.20;95.40;;;;;;6215436;23;20016;-83
2022/07/02 09:25:48;;;;;;;0.77;0.20;;;23.10;95.00;;;;;;6216058;23;20024;-84
2022/07/02 09:28:15;;;;;;;2.95;0.40;;;23.10;95.60;;;;;;6216216;23;20024;-83
2022/07/02 09:30:41;;;;;;;1.08;0.10;;;23.20;95.20;;;;;;6216119;23;20055;-83
2022/07/02 09:33:30;;;;;;;0.30;0.10;;;23.10;94.40;;;;;;6215786;23;20020;-82
2022/07/02 09:35:59;;;;;;;1.08;0.10;;;23.30;94.90;;;;;;6215710;23;20066;-83
2022/07/02 09:38:25;;;;;;;1.75;0.10;;;23.30;94.30;;;;;;6216084;23;20339;-83
2022/07/02 09:40:56;;;;;;;1.52;0.03;;;23.40;93.60;;;;;;6214231;23;20040;-83
2022/07/02 09:43:32;;;;;;;0.38;0.10;;;23.40;93.90;;;;;;6214050;23;20116;-86
2022/07/02 09:45:59;;;;;;;0.30;0.13;;;23.30;93.50;;;;;;6214739;23;20024;-84
2022/07/02 09:48:25;;;;;;;0.73;0.10;;;23.20;93.30;;;;;;6189156;23;20020;-83
2022/07/02 09:50:54;;;;;;;0.30;0.00;;;23.30;94.00;;;;;;6214164;23;20020;-83
2022/07/02 09:53:20;;;;;;;0.20;0.10;;;23.60;92.30;;;;;;6215831;23;20335;-82
2022/07/02 09:55:50;;;;;;;1.92;0.25;;;23.60;92.60;;;;;;6214742;23;20028;-86
2022/07/02 09:58:28;;;;;;;2.22;0.10;;;23.70;92.90;;;;;;6214012;23;20024;-84
2022/07/02 10:00:59;;;;;;;0.30;0.13;;;23.90;92.70;;;;;;6215857;23;20418;-90
2022/07/02 10:03:27;;;;;;;0.77;0.20;;;24.00;92.10;;;;;;6214624;23;20020;-84
2022/07/02 10:05:53;;;;;;;1.45;0.13;;;24.10;92.70;;;;;;6215827;23;20013;-84
2022/07/02 10:08:19;;;;;;;0.68;0.20;;;24.10;91.10;;;;;;6215598;23;20023;-85
2022/07/02 10:10:45;;;;;;;0.75;0.10;;;23.80;90.70;;;;;;6215381;23;20075;-85
2022/07/02 10:13:13;;;;;;;1.08;0.20;;;23.90;94.10;;;;;;6215347;23;20016;-83
2022/07/02 10:16:00;;;;;;;0.20;0.10;;;24.20;93.00;;;;;;6213860;23;20456;-86
2022/07/02 10:18:28;;;;;;;0.70;0.10;;;24.30;92.90;;;;;;6215463;23;20020;-85
2022/07/02 10:20:56;;;;;;;1.02;0.17;;;24.60;91.60;;;;;;6215330;23;20016;-83
2022/07/02 10:23:23;;;;;;;0.68;0.10;;;24.60;92.10;;;;;;6215240;23;20035;-84
2022/07/02 10:25:50;;;;;;;0.65;0.20;;;24.90;91.70;;;;;;6215875;23;20021;-85
2022/07/02 10:28:16;;;;;;;1.35;0.10;;;24.90;90.50;;;;;;6215253;23;20016;-85
2022/07/02 10:30:42;;;;;;;0.57;0.10;;;25.00;90.30;;;;;;6215571;23;20024;-86
2022/07/02 10:33:26;;;;;;;0.20;0.10;;;24.90;86.60;;;;;;6215672;23;20013;-86
2022/07/02 10:35:52;;;;;;;1.30;0.10;;;24.70;89.60;;;;;;6215874;23;20091;-86
2022/07/02 10:38:31;;;;;;;0.80;0.10;;;24.70;90.30;;;;;;6215671;23;20030;-85
2022/07/02 10:43:36;;;;;;;0.52;0.20;;;24.80;86.50;;;;;;6217678;22;20466;-86
2022/07/02 10:46:16;;;;;;;1.17;0.10;;;25.00;90.00;;;;;;6213460;23;20040;-86
2022/07/02 10:48:50;;;;;;;1.65;0.10;;;24.90;87.70;;;;;;6212918;23;20106;-84
2022/07/02 10:51:19;;;;;;;0.88;0.10;;;25.00;87.70;;;;;;6213970;23;20027;-87
2022/07/02 10:53:57;;;;;;;0.43;0.10;;;25.20;86.10;;;;;;6188253;23;20028;-85
2022/07/02 10:56:23;;;;;;;1.25;0.10;;;25.00;88.90;;;;;;6215173;23;20012;-85
2022/07/02 10:58:49;;;;;;;0.50;0.10;;;25.10;84.50;;;;;;6215248;23;20024;-85
2022/07/02 11:01:18;;;;;;;0.65;0.20;;;25.00;83.40;;;;;;6215232;23;20060;-85
2022/07/02 11:03:53;;;;;;;0.22;0.10;;;25.20;84.90;;;;;;6213143;23;20063;-84
2022/07/02 11:06:45;;;;;;;1.48;0.10;;;25.20;87.60;;;;;;6213917;23;20023;-83
2022/07/02 11:09:10;;;;;;;0.38;0.08;;;25.30;85.60;;;;;;6206937;23;20086;-84
2022/07/02 11:11:36;;;;;;;0.45;0.10;;;25.20;82.20;;;;;;6213185;23;20087;-86
2022/07/02 11:14:10;;;;;;;0.85;0.10;;;25.20;83.60;;;;;;6215577;23;20028;-87
2022/07/02 11:16:38;;;;;;;0.00;0.00;;;25.20;80.50;;;;;;6213062;23;20087;-87
2022/07/02 11:19:15;;;;;;;0.57;0.10;;;25.20;82.70;;;;;;6187946;23;20103;-86
2022/07/02 11:25:19;;;;;;;0.50;0.10;;;24.60;82.00;;;;;;6213390;22;20036;-87
2022/07/02 11:28:02;;;;;;;2.17;0.10;;;24.50;79.70;;;;;;6212732;23;20017;-85
2022/07/02 11:30:30;;;;;;;0.93;0.85;;;24.50;79.20;;;;;;6215153;23;20020;-85
2022/07/02 11:32:57;;;;;;;0.47;0.10;;;24.40;81.80;;;;;;6214696;23;20452;-86
2022/07/02 11:35:23;;;;;;;0.63;0.10;;;24.30;82.10;;;;;;6209469;22;20027;-86
2022/07/02 11:37:53;;;;;;;2.25;0.25;;;24.60;85.50;;;;;;6158689;23;20021;-87
2022/07/02 11:40:24;;;;;;;1.25;0.10;;;25.10;86.00;;;;;;6184043;23;20009;-85
2022/07/02 11:42:49;;;;;;;3.70;0.10;;;25.50;84.00;;;;;;6183514;23;20024;-84
2022/07/02 11:45:15;;;;;;;0.55;0.10;;;25.60;82.80;;;;;;6184938;23;20041;-85
2022/07/02 11:47:46;;;;;;;0.50;0.10;;;25.60;80.80;;;;;;6159111;23;20016;-84
2022/07/02 11:50:12;;;;;;;1.15;0.10;;;25.20;79.60;;;;;;6183637;23;20024;-85
2022/07/02 11:52:39;;;;;;;0.55;0.10;;;25.00;81.50;;;;;;6184900;23;20013;-84
2022/07/02 11:55:05;;;;;;;0.30;0.10;;;25.00;83.50;;;;;;6158070;23;20013;-86
2022/07/02 11:57:34;;;;;;;0.05;0.00;;;24.90;83.00;;;;;;6184593;23;20017;-84
2022/07/02 12:00:03;;;;;;;0.15;0.00;;;24.90;83.40;;;;;;6159626;23;20097;-84
2022/07/02 12:02:39;;;;;;;1.98;0.10;;;25.00;79.90;;;;;;6186710;23;20021;-85
2022/07/02 12:05:19;;;;;;;0.52;0.10;;;24.90;78.30;;;;;;6185325;23;20043;-88
2022/07/02 12:07:45;;;;;;;0.10;0.00;;;24.90;76.80;;;;;;6185105;23;20440;-83
2022/07/02 12:10:13;;;;;;;0.35;0.00;;;25.00;80.30;;;;;;6185065;23;20021;-86
2022/07/02 12:12:39;;;;;;;0.50;0.00;;;25.30;85.40;;;;;;6185285;23;20047;-87
2022/07/02 12:15:06;;;;;;;0.65;0.10;;;25.80;82.70;;;;;;6186806;23;20096;-86
2022/07/02 12:17:32;;;;;;;0.38;0.10;;;25.90;79.00;;;;;;6209882;23;20115;-86
2022/07/02 12:19:57;;;;;;;0.15;0.00;;;25.70;78.90;;;;;;6185041;23;20017;-87
2022/07/02 12:22:24;;;;;;;0.88;0.20;;;25.60;80.60;;;;;;6185465;23;20096;-86
2022/07/02 12:24:54;;;;;;;0.85;0.10;;;25.50;80.60;;;;;;6186338;23;20519;-85
2022/07/02 12:27:23;;;;;;;0.70;0.00;;;25.40;81.40;;;;;;6186406;23;20091;-84
2022/07/02 12:29:58;;;;;;;1.20;0.10;;;25.40;79.90;;;;;;6186694;23;20013;-86
2022/07/02 12:32:26;;;;;;;0.40;0.00;;;25.30;80.20;;;;;;6209884;23;20024;-86
2022/07/02 12:35:03;;;;;;;0.20;0.10;;;25.10;76.60;;;;;;6186219;23;20017;-85
2022/07/02 12:37:35;;;;;;;0.20;0.00;;;24.90;80.40;;;;;;6209681;23;20029;-88
2022/07/02 12:40:07;;;;;;;2.15;0.20;;;24.80;80.60;;;;;;6184976;23;20100;-87
2022/07/02 12:42:54;;;;;;;0.28;0.10;;;24.80;77.40;;;;;;6185220;23;20025;-89
2022/07/02 12:45:33;;;;;;;2.35;0.10;;;25.00;81.90;;;;;;6184734;23;20020;-87
2022/07/02 12:48:07;;;;;;;1.17;0.10;;;24.80;80.40;;;;;;6186132;23;20083;-87
2022/07/02 12:50:42;;;;;;;0.00;0.00;;;24.80;81.00;;;;;;6186953;23;20067;-87
2022/07/02 12:53:15;;;;;;;1.23;0.17;;;24.80;82.70;;;;;;6184703;23;20044;-86
2022/07/02 12:55:50;;;;;;;0.73;0.10;;;25.20;79.40;;;;;;6184919;23;20036;-87
2022/07/02 12:58:18;;;;;;;3.42;0.20;;;25.10;83.10;;;;;;6185414;23;20029;-87
2022/07/02 13:00:44;;;;;;;0.20;0.10;;;25.20;80.60;;;;;;6185295;23;20032;-87
2022/07/02 13:03:18;;;;;;;1.60;0.00;;;25.50;83.70;;;;;;6185066;23;20087;-87
2022/07/02 13:06:02;;;;;;;0.40;0.10;;;25.60;78.60;;;;;;6184589;23;20017;-86
2022/07/02 13:08:28;;;;;;;0.90;0.15;;;26.10;77.20;;;;;;6184602;23;20013;-86
2022/07/02 13:10:56;;;;;;;0.47;0.10;;;26.20;78.30;;;;;;6184674;23;20060;-88
2022/07/02 13:13:26;;;;;;;1.42;0.10;;;26.10;77.10;;;;;;6184928;23;20013;-87
2022/07/02 13:15:52;;;;;;;1.95;0.10;;;26.10;74.90;;;;;;6186193;23;20348;-87